createdAt,value
2016-12-04T00:00:48.236Z,0
2016-12-04T00:01:48.311Z,0
2016-12-04T00:02:48.293Z,0
2016-12-04T00:03:48.278Z,0
2016-12-04T00:04:48.287Z,0
2016-12-04T00:05:48.295Z,0
2016-12-04T00:06:48.309Z,0
2016-12-04T00:07:48.314Z,0
2016-12-04T00:08:48.325Z,0
2016-12-04T00:09:48.333Z,0
2016-12-04T00:10:48.340Z,0
2016-12-04T00:11:48.357Z,0
2016-12-04T00:12:48.360Z,0
2016-12-04T00:13:48.384Z,0
2016-12-04T00:14:48.390Z,0
2016-12-04T00:15:48.399Z,0
2016-12-04T00:16:48.414Z,0
2016-12-04T00:17:48.419Z,0
2016-12-04T00:18:48.454Z,0
2016-12-04T00:19:48.430Z,0
2016-12-04T00:20:48.473Z,0
2016-12-04T00:21:48.518Z,0
2016-12-04T00:22:48.468Z,0
2016-12-04T00:23:48.826Z,0
2016-12-04T00:24:48.494Z,0
2016-12-04T00:25:48.815Z,0
2016-12-04T00:26:48.507Z,0
2016-12-04T00:27:48.513Z,0
2016-12-04T00:28:48.530Z,0
2016-12-04T00:29:48.534Z,0
2016-12-04T00:30:48.774Z,0
2016-12-04T00:31:48.602Z,0
2016-12-04T00:32:48.790Z,0
2016-12-04T00:33:48.566Z,0
2016-12-04T00:34:48.575Z,0
2016-12-04T00:35:48.591Z,0
2016-12-04T00:36:48.611Z,0
2016-12-04T00:37:48.615Z,0
2016-12-04T00:38:48.625Z,0
2016-12-04T00:39:48.641Z,0
2016-12-04T00:40:48.665Z,0
2016-12-04T00:41:48.667Z,0
2016-12-04T00:42:48.667Z,0
2016-12-04T00:43:48.671Z,0
2016-12-04T00:44:48.677Z,0
2016-12-04T00:45:48.690Z,0
2016-12-04T00:46:48.707Z,0
2016-12-04T00:47:48.721Z,0
2016-12-04T00:48:48.729Z,0
2016-12-04T00:49:48.748Z,0
2016-12-04T00:50:48.758Z,0
2016-12-04T00:51:48.807Z,0
2016-12-04T00:52:48.771Z,0
2016-12-04T00:53:48.772Z,0
2016-12-04T00:54:48.781Z,0
2016-12-04T00:55:49.143Z,0
2016-12-04T00:56:48.808Z,0
2016-12-04T00:57:48.808Z,0
2016-12-04T00:58:48.827Z,0
2016-12-04T00:59:48.836Z,0
2016-12-04T01:00:48.846Z,0
2016-12-04T01:01:48.893Z,0
2016-12-04T01:02:49.202Z,0
2016-12-04T01:03:49.212Z,0
2016-12-04T01:04:48.881Z,0
2016-12-04T01:05:48.901Z,0
2016-12-04T01:06:48.909Z,0
2016-12-04T01:07:48.915Z,0
2016-12-04T01:08:48.919Z,0
2016-12-04T01:09:48.963Z,0
2016-12-04T01:10:48.942Z,0
2016-12-04T01:11:49.001Z,0
2016-12-04T01:12:48.959Z,0
2016-12-04T01:13:48.973Z,0
2016-12-04T01:14:48.976Z,0
2016-12-04T01:15:48.986Z,0
2016-12-04T01:16:49.004Z,0
2016-12-04T01:17:49.013Z,0
2016-12-04T01:18:49.021Z,0
2016-12-04T01:19:49.032Z,0
2016-12-04T01:20:49.041Z,0
2016-12-04T01:21:49.120Z,0
2016-12-04T01:22:49.068Z,0
2016-12-04T01:23:49.069Z,0
2016-12-04T01:24:49.080Z,0
2016-12-04T01:25:49.091Z,0
2016-12-04T01:26:49.091Z,0
2016-12-04T01:27:49.102Z,0
2016-12-04T01:28:49.111Z,0
2016-12-04T01:29:49.134Z,0
2016-12-04T01:30:49.142Z,0
2016-12-04T01:31:49.210Z,0
2016-12-04T01:32:49.168Z,0
2016-12-04T01:33:49.174Z,0
2016-12-04T01:34:49.171Z,0
2016-12-04T01:35:49.528Z,0
2016-12-04T01:36:49.752Z,0
2016-12-04T01:37:49.207Z,0
2016-12-04T01:38:49.219Z,0
2016-12-04T01:39:49.215Z,0
2016-12-04T01:40:49.242Z,0
2016-12-04T01:41:49.300Z,0
2016-12-04T01:42:49.257Z,0
2016-12-04T01:43:49.263Z,0
2016-12-04T01:44:49.278Z,0
2016-12-04T01:45:49.301Z,0
2016-12-04T01:46:49.609Z,0
2016-12-04T01:47:49.305Z,0
2016-12-04T01:48:49.311Z,0
2016-12-04T01:49:49.327Z,0
2016-12-04T01:50:49.335Z,0
2016-12-04T01:51:49.387Z,0
2016-12-04T01:52:49.344Z,0
2016-12-04T01:53:49.364Z,0
2016-12-04T01:54:49.376Z,0
2016-12-04T01:55:49.402Z,0
2016-12-04T01:56:49.394Z,0
2016-12-04T01:57:49.405Z,0
2016-12-04T01:58:49.410Z,0
2016-12-04T01:59:49.417Z,0
2016-12-04T02:00:49.420Z,0
2016-12-04T02:01:49.763Z,0
2016-12-04T02:02:49.445Z,0
2016-12-04T02:03:49.452Z,0
2016-12-04T02:04:49.495Z,0
2016-12-04T02:05:49.476Z,0
2016-12-04T02:06:49.805Z,0
2016-12-04T02:07:49.503Z,0
2016-12-04T02:08:49.516Z,0
2016-12-04T02:09:49.525Z,0
2016-12-04T02:10:50.073Z,0
2016-12-04T02:11:49.593Z,0
2016-12-04T02:12:49.547Z,0
2016-12-04T02:13:49.553Z,0
2016-12-04T02:14:49.906Z,0
2016-12-04T02:15:49.583Z,0
2016-12-04T02:16:49.580Z,0
2016-12-04T02:17:49.590Z,0
2016-12-04T02:18:49.600Z,0
2016-12-04T02:19:49.618Z,0
2016-12-04T02:20:49.941Z,0
2016-12-04T02:21:49.690Z,0
2016-12-04T02:22:49.658Z,0
2016-12-04T02:23:49.659Z,0
2016-12-04T02:24:49.666Z,0
2016-12-04T02:25:49.685Z,0
2016-12-04T02:26:50.024Z,0
2016-12-04T02:27:49.718Z,0
2016-12-04T02:28:49.703Z,0
2016-12-04T02:29:49.715Z,0
2016-12-04T02:30:49.725Z,0
2016-12-04T02:31:49.788Z,0
2016-12-04T02:32:49.743Z,0
2016-12-04T02:33:49.747Z,0
2016-12-04T02:34:49.753Z,0
2016-12-04T02:35:49.763Z,0
2016-12-04T02:36:49.823Z,0
2016-12-04T02:37:49.796Z,0
2016-12-04T02:38:49.800Z,0
2016-12-04T02:39:49.812Z,0
2016-12-04T02:40:49.815Z,0
2016-12-04T02:41:49.823Z,0
2016-12-04T02:42:49.840Z,0
2016-12-04T02:43:49.851Z,0
2016-12-04T02:44:49.859Z,0
2016-12-04T02:45:50.417Z,0
2016-12-04T02:46:49.924Z,0
2016-12-04T02:47:49.874Z,0
2016-12-04T02:48:49.898Z,0
2016-12-04T02:49:49.909Z,0
2016-12-04T02:50:49.913Z,0
2016-12-04T02:51:49.932Z,0
2016-12-04T02:52:49.935Z,0
2016-12-04T02:53:49.951Z,0
2016-12-04T02:54:49.954Z,0
2016-12-04T02:55:49.956Z,0
2016-12-04T02:56:50.013Z,0
2016-12-04T02:57:50.018Z,0
2016-12-04T02:58:49.989Z,0
2016-12-04T02:59:50.000Z,0
2016-12-04T03:00:50.005Z,0
2016-12-04T03:01:50.058Z,0
2016-12-04T03:02:50.025Z,0
2016-12-04T03:03:50.038Z,0
2016-12-04T03:04:50.048Z,0
2016-12-04T03:05:50.054Z,0
2016-12-04T03:06:50.060Z,0
2016-12-04T03:07:50.385Z,0
2016-12-04T03:08:50.081Z,0
2016-12-04T03:09:50.087Z,0
2016-12-04T03:10:50.102Z,0
2016-12-04T03:11:50.509Z,0
2016-12-04T03:12:50.463Z,0
2016-12-04T03:13:50.129Z,0
2016-12-04T03:14:50.136Z,0
2016-12-04T03:15:50.149Z,0
2016-12-04T03:16:50.161Z,0
2016-12-04T03:17:50.169Z,0
2016-12-04T03:18:50.178Z,0
2016-12-04T03:19:50.784Z,0
2016-12-04T03:20:50.201Z,0
2016-12-04T03:21:50.287Z,0
2016-12-04T03:22:50.580Z,0
2016-12-04T03:23:50.256Z,0
2016-12-04T03:24:50.797Z,0
2016-12-04T03:25:50.248Z,0
2016-12-04T03:26:50.269Z,0
2016-12-04T03:27:50.260Z,0
2016-12-04T03:28:50.950Z,0
2016-12-04T03:29:50.280Z,0
2016-12-04T03:30:50.296Z,0
2016-12-04T03:31:50.349Z,0
2016-12-04T03:32:50.331Z,0
2016-12-04T03:33:50.318Z,0
2016-12-04T03:34:50.335Z,0
2016-12-04T03:35:50.343Z,0
2016-12-04T03:36:50.357Z,0
2016-12-04T03:37:50.397Z,0
2016-12-04T03:38:50.365Z,0
2016-12-04T03:39:50.390Z,0
2016-12-04T03:40:50.391Z,0
2016-12-04T03:41:50.396Z,0
2016-12-04T03:42:50.414Z,0
2016-12-04T03:43:50.420Z,0
2016-12-04T03:44:50.435Z,0
2016-12-04T03:45:50.437Z,0
2016-12-04T03:46:50.499Z,0
2016-12-04T03:47:50.795Z,0
2016-12-04T03:48:50.463Z,0
2016-12-04T03:49:50.466Z,0
2016-12-04T03:50:50.730Z,0
2016-12-04T03:51:50.492Z,0
2016-12-04T03:52:51.396Z,0
2016-12-04T03:53:50.516Z,0
2016-12-04T03:54:50.508Z,0
2016-12-04T03:55:50.535Z,0
2016-12-04T03:56:51.089Z,0
2016-12-04T03:57:50.552Z,0
2016-12-04T03:58:50.565Z,0
2016-12-04T03:59:50.564Z,0
2016-12-04T04:00:50.571Z,0
2016-12-04T04:01:50.579Z,0
2016-12-04T04:02:50.595Z,0
2016-12-04T04:03:50.603Z,0
2016-12-04T04:04:50.612Z,0
2016-12-04T04:05:50.944Z,0
2016-12-04T04:06:50.685Z,0
2016-12-04T04:07:50.640Z,0
2016-12-04T04:08:50.687Z,0
2016-12-04T04:09:50.662Z,0
2016-12-04T04:10:51.035Z,0
2016-12-04T04:11:51.233Z,0
2016-12-04T04:12:51.038Z,0
2016-12-04T04:13:51.273Z,0
2016-12-04T04:14:50.708Z,0
2016-12-04T04:15:50.713Z,0
2016-12-04T04:16:50.781Z,0
2016-12-04T04:17:50.729Z,0
2016-12-04T04:18:50.748Z,0
2016-12-04T04:19:50.760Z,0
2016-12-04T04:20:50.759Z,0
2016-12-04T04:21:50.777Z,0
2016-12-04T04:22:50.809Z,0
2016-12-04T04:23:50.800Z,0
2016-12-04T04:24:50.796Z,0
2016-12-04T04:25:51.020Z,0
2016-12-04T04:26:50.865Z,0
2016-12-04T04:27:50.831Z,0
2016-12-04T04:28:50.831Z,0
2016-12-04T04:29:50.851Z,0
2016-12-04T04:30:51.206Z,0
2016-12-04T04:31:50.876Z,0
2016-12-04T04:32:50.881Z,0
2016-12-04T04:33:50.886Z,0
2016-12-04T04:34:50.903Z,0
2016-12-04T04:35:51.457Z,0
2016-12-04T04:36:50.966Z,0
2016-12-04T04:37:50.921Z,0
2016-12-04T04:38:50.936Z,0
2016-12-04T04:39:50.944Z,0
2016-12-04T04:40:50.991Z,0
2016-12-04T04:41:50.976Z,0
2016-12-04T04:42:50.980Z,0
2016-12-04T04:43:50.980Z,0
2016-12-04T04:44:50.991Z,0
2016-12-04T04:45:51.000Z,0
2016-12-04T04:46:51.055Z,0
2016-12-04T04:47:51.213Z,0
2016-12-04T04:48:51.054Z,0
2016-12-04T04:49:51.384Z,0
2016-12-04T04:50:51.072Z,0
2016-12-04T04:51:51.062Z,0
2016-12-04T04:52:51.411Z,0
2016-12-04T04:53:51.070Z,0
2016-12-04T04:54:51.090Z,0
2016-12-04T04:55:51.100Z,0
2016-12-04T04:56:51.857Z,0
2016-12-04T04:57:51.122Z,0
2016-12-04T04:58:51.132Z,0
2016-12-04T04:59:51.129Z,0
2016-12-04T05:00:51.143Z,0
2016-12-04T05:01:51.150Z,0
2016-12-04T05:02:51.162Z,0
2016-12-04T05:03:51.166Z,0
2016-12-04T05:04:51.525Z,0
2016-12-04T05:05:51.192Z,0
2016-12-04T05:06:51.249Z,0
2016-12-04T05:07:51.214Z,0
2016-12-04T05:08:51.221Z,0
2016-12-04T05:09:51.568Z,0
2016-12-04T05:10:51.246Z,0
2016-12-04T05:11:51.248Z,0
2016-12-04T05:12:51.254Z,0
2016-12-04T05:13:51.265Z,0
2016-12-04T05:14:51.266Z,0
2016-12-04T05:15:51.914Z,0
2016-12-04T05:16:51.350Z,0
2016-12-04T05:17:51.307Z,0
2016-12-04T05:18:51.337Z,0
2016-12-04T05:19:51.333Z,0
2016-12-04T05:20:51.527Z,0
2016-12-04T05:21:51.362Z,0
2016-12-04T05:22:51.384Z,0
2016-12-04T05:23:51.365Z,0
2016-12-04T05:24:51.358Z,0
2016-12-04T05:25:51.373Z,0
2016-12-04T05:26:51.380Z,0
2016-12-04T05:27:51.389Z,0
2016-12-04T05:28:51.396Z,0
2016-12-04T05:29:51.774Z,0
2016-12-04T05:30:51.434Z,0
2016-12-04T05:31:51.435Z,0
2016-12-04T05:32:51.441Z,0
2016-12-04T05:33:51.806Z,0
2016-12-04T05:34:51.461Z,0
2016-12-04T05:35:51.457Z,0
2016-12-04T05:36:51.470Z,0
2016-12-04T05:37:51.480Z,0
2016-12-04T05:38:51.503Z,0
2016-12-04T05:39:51.535Z,0
2016-12-04T05:40:51.523Z,0
2016-12-04T05:41:51.579Z,0
2016-12-04T05:42:51.532Z,0
2016-12-04T05:43:51.542Z,0
2016-12-04T05:44:51.557Z,0
2016-12-04T05:45:51.567Z,0
2016-12-04T05:46:51.610Z,0
2016-12-04T05:47:51.943Z,0
2016-12-04T05:48:51.590Z,0
2016-12-04T05:49:51.630Z,0
2016-12-04T05:50:52.150Z,0
2016-12-04T05:51:51.613Z,0
2016-12-04T05:52:51.626Z,0
2016-12-04T05:53:51.834Z,0
2016-12-04T05:54:51.843Z,0
2016-12-04T05:55:51.689Z,0
2016-12-04T05:56:51.726Z,0
2016-12-04T05:57:52.015Z,0
2016-12-04T05:58:52.047Z,0
2016-12-04T05:59:51.686Z,0
2016-12-04T06:00:51.703Z,0
2016-12-04T06:01:51.706Z,0
2016-12-04T06:02:51.724Z,0
2016-12-04T06:03:52.382Z,0
2016-12-04T06:04:51.729Z,0
2016-12-04T06:05:52.084Z,0
2016-12-04T06:06:52.498Z,0
2016-12-04T06:07:51.793Z,0
2016-12-04T06:08:52.116Z,0
2016-12-04T06:09:51.782Z,0
2016-12-04T06:10:51.788Z,0
2016-12-04T06:11:52.183Z,0
2016-12-04T06:12:51.807Z,0
2016-12-04T06:13:51.818Z,0
2016-12-04T06:14:51.829Z,0
2016-12-04T06:15:51.838Z,0
2016-12-04T06:16:51.928Z,0
2016-12-04T06:17:51.850Z,0
2016-12-04T06:18:52.212Z,0
2016-12-04T06:19:52.241Z,0
2016-12-04T06:20:52.241Z,0
2016-12-04T06:21:51.895Z,0
2016-12-04T06:22:51.909Z,0
2016-12-04T06:23:51.952Z,0
2016-12-04T06:24:52.606Z,0
2016-12-04T06:25:52.613Z,0
2016-12-04T06:26:51.984Z,0
2016-12-04T06:27:52.273Z,0
2016-12-04T06:28:52.296Z,0
2016-12-04T06:29:51.962Z,0
2016-12-04T06:30:51.977Z,0
2016-12-04T06:31:51.979Z,0
2016-12-04T06:32:51.990Z,0
2016-12-04T06:33:52.007Z,0
2016-12-04T06:34:52.009Z,0
2016-12-04T06:35:52.048Z,0
2016-12-04T06:36:52.032Z,0
2016-12-04T06:37:52.046Z,4
2016-12-04T06:38:52.064Z,4
2016-12-04T06:39:52.046Z,4
2016-12-04T06:40:52.109Z,0
2016-12-04T06:41:52.438Z,4
2016-12-04T06:42:52.455Z,4
2016-12-04T06:43:52.443Z,4
2016-12-04T06:44:52.112Z,4
2016-12-04T06:45:52.428Z,4
2016-12-04T06:46:52.181Z,4
2016-12-04T06:47:52.689Z,8
2016-12-04T06:48:52.478Z,8
2016-12-04T06:49:52.147Z,8
2016-12-04T06:50:52.165Z,8
2016-12-04T06:51:52.170Z,8
2016-12-04T06:52:52.207Z,12
2016-12-04T06:53:52.184Z,12
2016-12-04T06:54:52.552Z,12
2016-12-04T06:55:52.196Z,12
2016-12-04T06:56:52.265Z,16
2016-12-04T06:57:52.568Z,16
2016-12-04T06:58:52.232Z,20
2016-12-04T06:59:52.626Z,20
2016-12-04T07:00:52.256Z,20
2016-12-04T07:01:52.265Z,20
2016-12-04T07:02:52.275Z,24
2016-12-04T07:03:52.279Z,24
2016-12-04T07:04:52.294Z,28
2016-12-04T07:05:52.303Z,28
2016-12-04T07:06:52.363Z,32
2016-12-04T07:07:52.311Z,32
2016-12-04T07:08:52.312Z,36
2016-12-04T07:09:52.363Z,36
2016-12-04T07:10:52.348Z,40
2016-12-04T07:11:52.362Z,40
2016-12-04T07:12:52.706Z,44
2016-12-04T07:13:52.379Z,48
2016-12-04T07:14:52.385Z,44
2016-12-04T07:15:52.731Z,48
2016-12-04T07:16:52.409Z,52
2016-12-04T07:17:52.421Z,56
2016-12-04T07:18:52.795Z,60
2016-12-04T07:19:52.461Z,60
2016-12-04T07:20:52.425Z,64
2016-12-04T07:21:52.447Z,68
2016-12-04T07:22:52.483Z,68
2016-12-04T07:23:52.459Z,72
2016-12-04T07:24:52.474Z,76
2016-12-04T07:25:52.474Z,80
2016-12-04T07:26:52.555Z,80
2016-12-04T07:27:52.500Z,88
2016-12-04T07:28:52.525Z,88
2016-12-04T07:29:52.517Z,88
2016-12-04T07:30:52.523Z,96
2016-12-04T07:31:52.537Z,96
2016-12-04T07:32:52.548Z,100
2016-12-04T07:33:52.546Z,108
2016-12-04T07:34:52.553Z,108
2016-12-04T07:35:52.567Z,112
2016-12-04T07:36:52.639Z,112
2016-12-04T07:37:52.593Z,116
2016-12-04T07:38:52.596Z,120
2016-12-04T07:39:52.603Z,124
2016-12-04T07:40:52.608Z,128
2016-12-04T07:41:53.343Z,132
2016-12-04T07:42:52.962Z,136
2016-12-04T07:43:52.668Z,140
2016-12-04T07:44:52.641Z,144
2016-12-04T07:45:52.651Z,148
2016-12-04T07:46:52.716Z,148
2016-12-04T07:47:52.680Z,152
2016-12-04T07:48:52.684Z,156
2016-12-04T07:49:53.035Z,156
2016-12-04T07:50:52.726Z,156
2016-12-04T07:51:53.311Z,160
2016-12-04T07:52:53.295Z,164
2016-12-04T07:53:53.097Z,164
2016-12-04T07:54:53.102Z,168
2016-12-04T07:55:52.745Z,168
2016-12-04T07:56:52.815Z,172
2016-12-04T07:57:53.135Z,172
2016-12-04T07:58:52.776Z,176
2016-12-04T07:59:52.783Z,176
2016-12-04T08:00:52.799Z,176
2016-12-04T08:01:52.819Z,176
2016-12-04T08:02:53.029Z,180
2016-12-04T08:03:52.818Z,176
2016-12-04T08:04:53.184Z,180
2016-12-04T08:05:52.853Z,184
2016-12-04T08:06:53.197Z,188
2016-12-04T08:07:53.113Z,196
2016-12-04T08:08:52.877Z,196
2016-12-04T08:09:52.882Z,204
2016-12-04T08:10:52.901Z,204
2016-12-04T08:11:53.498Z,208
2016-12-04T08:12:53.249Z,212
2016-12-04T08:13:53.289Z,208
2016-12-04T08:14:53.131Z,212
2016-12-04T08:15:53.316Z,212
2016-12-04T08:16:52.982Z,212
2016-12-04T08:17:52.957Z,212
2016-12-04T08:18:53.322Z,216
2016-12-04T08:19:53.901Z,216
2016-12-04T08:20:53.348Z,220
2016-12-04T08:21:52.999Z,220
2016-12-04T08:22:53.394Z,224
2016-12-04T08:23:53.907Z,224
2016-12-04T08:24:53.338Z,228
2016-12-04T08:25:53.833Z,236
2016-12-04T08:26:53.424Z,240
2016-12-04T08:27:53.059Z,240
2016-12-04T08:28:53.058Z,244
2016-12-04T08:29:53.758Z,252
2016-12-04T08:30:53.117Z,260
2016-12-04T08:31:53.423Z,268
2016-12-04T08:32:53.436Z,272
2016-12-04T08:33:53.680Z,276
2016-12-04T08:34:53.110Z,288
2016-12-04T08:35:53.722Z,300
2016-12-04T08:36:53.215Z,308
2016-12-04T08:37:53.589Z,316
2016-12-04T08:38:53.521Z,328
2016-12-04T08:39:53.538Z,340
2016-12-04T08:40:54.187Z,352
2016-12-04T08:41:53.527Z,360
2016-12-04T08:42:53.543Z,368
2016-12-04T08:43:53.207Z,372
2016-12-04T08:44:53.579Z,376
2016-12-04T08:45:53.788Z,380
2016-12-04T08:46:53.823Z,376
2016-12-04T08:47:53.580Z,376
2016-12-04T08:48:53.235Z,368
2016-12-04T08:49:53.250Z,360
2016-12-04T08:50:53.279Z,356
2016-12-04T08:51:53.280Z,348
2016-12-04T08:52:53.285Z,336
2016-12-04T08:53:53.295Z,324
2016-12-04T08:54:53.302Z,316
2016-12-04T08:55:53.619Z,316
2016-12-04T08:56:53.362Z,308
2016-12-04T08:57:53.327Z,304
2016-12-04T08:58:53.335Z,308
2016-12-04T08:59:54.223Z,300
2016-12-04T09:00:53.737Z,296
2016-12-04T09:01:53.718Z,292
2016-12-04T09:02:53.405Z,288
2016-12-04T09:03:53.711Z,280
2016-12-04T09:04:53.391Z,272
2016-12-04T09:05:53.406Z,268
2016-12-04T09:06:53.460Z,264
2016-12-04T09:07:53.418Z,260
2016-12-04T09:08:53.436Z,264
2016-12-04T09:09:54.435Z,260
2016-12-04T09:10:53.463Z,260
2016-12-04T09:11:53.461Z,256
2016-12-04T09:12:53.493Z,252
2016-12-04T09:13:53.827Z,248
2016-12-04T09:14:53.516Z,248
2016-12-04T09:15:53.511Z,244
2016-12-04T09:16:53.504Z,244
2016-12-04T09:17:53.517Z,236
2016-12-04T09:18:53.726Z,236
2016-12-04T09:19:53.527Z,232
2016-12-04T09:20:53.546Z,232
2016-12-04T09:21:53.902Z,232
2016-12-04T09:22:53.575Z,232
2016-12-04T09:23:53.569Z,232
2016-12-04T09:24:53.584Z,232
2016-12-04T09:25:53.591Z,228
2016-12-04T09:26:53.940Z,236
2016-12-04T09:27:53.620Z,232
2016-12-04T09:28:53.629Z,236
2016-12-04T09:29:53.634Z,240
2016-12-04T09:30:53.645Z,244
2016-12-04T09:31:53.752Z,252
2016-12-04T09:32:53.665Z,248
2016-12-04T09:33:53.999Z,256
2016-12-04T09:34:53.687Z,264
2016-12-04T09:35:53.694Z,264
2016-12-04T09:36:53.698Z,264
2016-12-04T09:37:54.049Z,272
2016-12-04T09:38:53.729Z,272
2016-12-04T09:39:53.724Z,272
2016-12-04T09:40:53.733Z,272
2016-12-04T09:41:53.754Z,280
2016-12-04T09:42:53.762Z,288
2016-12-04T09:43:54.106Z,300
2016-12-04T09:44:53.773Z,308
2016-12-04T09:45:53.804Z,316
2016-12-04T09:46:53.847Z,316
2016-12-04T09:47:53.810Z,332
2016-12-04T09:48:53.824Z,336
2016-12-04T09:49:53.847Z,332
2016-12-04T09:50:53.839Z,336
2016-12-04T09:51:53.842Z,336
2016-12-04T09:52:54.237Z,336
2016-12-04T09:53:53.855Z,336
2016-12-04T09:54:53.880Z,336
2016-12-04T09:55:53.888Z,336
2016-12-04T09:56:53.898Z,328
2016-12-04T09:57:54.237Z,320
2016-12-04T09:58:53.912Z,320
2016-12-04T09:59:53.944Z,312
2016-12-04T10:00:53.934Z,308
2016-12-04T10:01:54.395Z,312
2016-12-04T10:02:54.316Z,312
2016-12-04T10:03:54.301Z,320
2016-12-04T10:04:54.318Z,324
2016-12-04T10:05:54.322Z,336
2016-12-04T10:06:54.598Z,344
2016-12-04T10:07:54.773Z,340
2016-12-04T10:08:54.008Z,344
2016-12-04T10:09:54.406Z,352
2016-12-04T10:10:54.033Z,352
2016-12-04T10:11:54.045Z,352
2016-12-04T10:12:54.439Z,360
2016-12-04T10:13:54.786Z,356
2016-12-04T10:14:54.643Z,364
2016-12-04T10:15:54.091Z,380
2016-12-04T10:16:54.438Z,404
2016-12-04T10:17:54.135Z,408
2016-12-04T10:18:54.113Z,416
2016-12-04T10:19:54.117Z,412
2016-12-04T10:20:54.133Z,424
2016-12-04T10:21:54.487Z,436
2016-12-04T10:22:54.146Z,428
2016-12-04T10:23:54.162Z,432
2016-12-04T10:24:54.168Z,444
2016-12-04T10:25:54.506Z,444
2016-12-04T10:26:54.460Z,448
2016-12-04T10:27:54.200Z,456
2016-12-04T10:28:54.414Z,468
2016-12-04T10:29:54.223Z,464
2016-12-04T10:30:54.236Z,464
2016-12-04T10:31:54.236Z,464
2016-12-04T10:32:54.605Z,484
2016-12-04T10:33:54.294Z,488
2016-12-04T10:34:54.280Z,484
2016-12-04T10:35:54.826Z,480
2016-12-04T10:36:54.283Z,496
2016-12-04T10:37:54.307Z,500
2016-12-04T10:38:54.308Z,500
2016-12-04T10:39:54.325Z,504
2016-12-04T10:40:54.344Z,496
2016-12-04T10:41:54.340Z,496
2016-12-04T10:42:54.360Z,492
2016-12-04T10:43:54.363Z,476
2016-12-04T10:44:54.386Z,500
2016-12-04T10:45:54.390Z,504
2016-12-04T10:46:54.458Z,524
2016-12-04T10:47:54.404Z,524
2016-12-04T10:48:54.421Z,520
2016-12-04T10:49:54.735Z,512
2016-12-04T10:50:54.434Z,500
2016-12-04T10:51:54.479Z,476
2016-12-04T10:52:54.458Z,448
2016-12-04T10:53:54.468Z,440
2016-12-04T10:54:54.469Z,420
2016-12-04T10:55:54.498Z,408
2016-12-04T10:56:54.491Z,396
2016-12-04T10:57:54.514Z,392
2016-12-04T10:58:54.521Z,388
2016-12-04T10:59:54.523Z,392
2016-12-04T11:00:54.530Z,392
2016-12-04T11:01:54.552Z,388
2016-12-04T11:02:54.559Z,388
2016-12-04T11:03:54.564Z,388
2016-12-04T11:04:54.571Z,388
2016-12-04T11:05:54.593Z,384
2016-12-04T11:06:54.598Z,388
2016-12-04T11:07:54.617Z,388
2016-12-04T11:08:54.629Z,372
2016-12-04T11:09:54.672Z,376
2016-12-04T11:10:54.638Z,380
2016-12-04T11:11:54.650Z,392
2016-12-04T11:12:54.671Z,392
2016-12-04T11:13:54.676Z,400
2016-12-04T11:14:54.685Z,412
2016-12-04T11:15:54.692Z,412
2016-12-04T11:16:54.756Z,416
2016-12-04T11:17:54.713Z,424
2016-12-04T11:18:54.758Z,420
2016-12-04T11:19:54.736Z,432
2016-12-04T11:20:54.750Z,432
2016-12-04T11:21:54.813Z,440
2016-12-04T11:22:54.763Z,440
2016-12-04T11:23:54.779Z,448
2016-12-04T11:24:54.788Z,448
2016-12-04T11:25:55.119Z,456
2016-12-04T11:26:54.860Z,456
2016-12-04T11:27:54.822Z,460
2016-12-04T11:28:54.838Z,464
2016-12-04T11:29:54.843Z,464
2016-12-04T11:30:54.858Z,468
2016-12-04T11:31:54.891Z,468
2016-12-04T11:32:54.882Z,472
2016-12-04T11:33:55.213Z,472
2016-12-04T11:34:54.897Z,472
2016-12-04T11:35:54.905Z,472
2016-12-04T11:36:54.969Z,468
2016-12-04T11:37:55.249Z,480
2016-12-04T11:38:54.937Z,496
2016-12-04T11:39:54.949Z,500
2016-12-04T11:40:54.957Z,500
2016-12-04T11:41:54.971Z,508
2016-12-04T11:42:54.985Z,520
2016-12-04T11:43:55.024Z,524
2016-12-04T11:44:55.002Z,512
2016-12-04T11:45:55.015Z,496
2016-12-04T11:46:55.083Z,488
2016-12-04T11:47:55.040Z,472
2016-12-04T11:48:55.050Z,460
2016-12-04T11:49:55.090Z,460
2016-12-04T11:50:55.073Z,460
2016-12-04T11:51:55.133Z,476
2016-12-04T11:52:55.296Z,480
2016-12-04T11:53:55.106Z,472
2016-12-04T11:54:55.137Z,464
2016-12-04T11:55:55.133Z,484
2016-12-04T11:56:55.140Z,484
2016-12-04T11:57:55.148Z,484
2016-12-04T11:58:55.161Z,488
2016-12-04T11:59:55.177Z,476
2016-12-04T12:00:55.500Z,468
2016-12-04T12:01:55.306Z,456
2016-12-04T12:02:55.311Z,444
2016-12-04T12:03:55.217Z,440
2016-12-04T12:04:55.341Z,436
2016-12-04T12:05:55.241Z,432
2016-12-04T12:06:55.413Z,424
2016-12-04T12:07:55.255Z,412
2016-12-04T12:08:55.274Z,408
2016-12-04T12:09:55.284Z,416
2016-12-04T12:10:55.487Z,416
2016-12-04T12:11:55.352Z,424
2016-12-04T12:12:55.316Z,436
2016-12-04T12:13:55.322Z,436
2016-12-04T12:14:55.334Z,440
2016-12-04T12:15:55.380Z,432
2016-12-04T12:16:55.625Z,420
2016-12-04T12:17:55.367Z,416
2016-12-04T12:18:55.381Z,416
2016-12-04T12:19:55.396Z,400
2016-12-04T12:20:55.411Z,380
2016-12-04T12:21:55.463Z,388
2016-12-04T12:22:55.429Z,388
2016-12-04T12:23:55.438Z,392
2016-12-04T12:24:55.543Z,408
2016-12-04T12:25:55.549Z,412
2016-12-04T12:26:55.557Z,404
2016-12-04T12:27:55.571Z,404
2016-12-04T12:28:55.577Z,408
2016-12-04T12:29:55.579Z,412
2016-12-04T12:30:55.589Z,412
2016-12-04T12:31:55.600Z,416
2016-12-04T12:32:55.604Z,428
2016-12-04T12:33:55.548Z,432
2016-12-04T12:34:55.567Z,428
2016-12-04T12:35:55.575Z,424
2016-12-04T12:36:55.635Z,424
2016-12-04T12:37:55.595Z,416
2016-12-04T12:38:55.606Z,412
2016-12-04T12:39:55.615Z,408
2016-12-04T12:40:55.637Z,412
2016-12-04T12:41:55.640Z,416
2016-12-04T12:42:55.652Z,416
2016-12-04T12:43:55.661Z,424
2016-12-04T12:44:55.673Z,428
2016-12-04T12:45:55.686Z,428
2016-12-04T12:46:55.695Z,420
2016-12-04T12:47:55.706Z,416
2016-12-04T12:48:55.718Z,412
2016-12-04T12:49:55.728Z,408
2016-12-04T12:50:55.743Z,396
2016-12-04T12:51:55.759Z,388
2016-12-04T12:52:55.943Z,384
2016-12-04T12:53:55.774Z,380
2016-12-04T12:54:55.854Z,372
2016-12-04T12:55:55.800Z,372
2016-12-04T12:56:55.861Z,376
2016-12-04T12:57:55.820Z,376
2016-12-04T12:58:55.863Z,372
2016-12-04T12:59:55.844Z,372
2016-12-04T13:00:55.855Z,372
2016-12-04T13:01:55.867Z,372
2016-12-04T13:02:55.878Z,372
2016-12-04T13:03:55.889Z,372
2016-12-04T13:04:55.903Z,376
2016-12-04T13:05:55.914Z,376
2016-12-04T13:06:55.923Z,372
2016-12-04T13:07:55.933Z,372
2016-12-04T13:08:55.950Z,368
2016-12-04T13:09:55.961Z,368
2016-12-04T13:10:55.969Z,368
2016-12-04T13:11:56.030Z,368
2016-12-04T13:12:55.994Z,364
2016-12-04T13:13:56.004Z,368
2016-12-04T13:14:56.044Z,376
2016-12-04T13:15:56.027Z,388
2016-12-04T13:16:56.038Z,396
2016-12-04T13:17:56.368Z,400
2016-12-04T13:18:56.062Z,392
2016-12-04T13:19:56.069Z,384
2016-12-04T13:20:56.125Z,376
2016-12-04T13:21:56.095Z,372
2016-12-04T13:22:56.134Z,368
2016-12-04T13:23:56.138Z,364
2016-12-04T13:24:56.133Z,356
2016-12-04T13:25:56.187Z,352
2016-12-04T13:26:56.152Z,344
2016-12-04T13:27:56.161Z,340
2016-12-04T13:28:56.174Z,344
2016-12-04T13:29:56.193Z,340
2016-12-04T13:30:56.199Z,344
2016-12-04T13:31:56.261Z,340
2016-12-04T13:32:56.225Z,336
2016-12-04T13:33:56.232Z,328
2016-12-04T13:34:56.256Z,324
2016-12-04T13:35:56.258Z,316
2016-12-04T13:36:56.268Z,308
2016-12-04T13:37:56.311Z,304
2016-12-04T13:38:56.289Z,296
2016-12-04T13:39:56.301Z,292
2016-12-04T13:40:56.317Z,288
2016-12-04T13:41:56.322Z,288
2016-12-04T13:42:56.339Z,284
2016-12-04T13:43:56.350Z,276
2016-12-04T13:44:56.359Z,268
2016-12-04T13:45:56.374Z,264
2016-12-04T13:46:56.405Z,256
2016-12-04T13:47:56.401Z,248
2016-12-04T13:48:56.403Z,248
2016-12-04T13:49:56.418Z,240
2016-12-04T13:50:56.432Z,236
2016-12-04T13:51:56.487Z,232
2016-12-04T13:52:56.454Z,224
2016-12-04T13:53:56.460Z,212
2016-12-04T13:54:56.472Z,200
2016-12-04T13:55:56.489Z,196
2016-12-04T13:56:56.496Z,188
2016-12-04T13:57:56.510Z,180
2016-12-04T13:58:56.525Z,176
2016-12-04T13:59:56.535Z,172
2016-12-04T14:00:56.554Z,168
2016-12-04T14:01:56.611Z,160
2016-12-04T14:02:56.567Z,156
2016-12-04T14:03:56.579Z,148
2016-12-04T14:04:56.593Z,148
2016-12-04T14:05:56.612Z,144
2016-12-04T14:06:56.613Z,144
2016-12-04T14:07:56.626Z,140
2016-12-04T14:08:56.638Z,140
2016-12-04T14:09:56.657Z,136
2016-12-04T14:10:56.665Z,136
2016-12-04T14:11:56.727Z,132
2016-12-04T14:12:56.688Z,132
2016-12-04T14:13:56.699Z,132
2016-12-04T14:14:56.709Z,128
2016-12-04T14:15:56.724Z,124